WetterOnline ( https://www.wetteronline.de )

Wetter aktuell Luckenwalde

Aktuelles Wetter: Baruth (55m)

6-stündlich | Neueste Meldungen
Ortszeit Temperatur Wetter
Mo, 20.05. 8:00 16.7° C wolkig
Mo, 20.05. 2:00 13.4° C wolkig
So, 19.05. 20:00 21.3° C wolkig
So, 19.05. 14:00 26.3° C leicht bewölkt
So, 19.05. 8:00 14.9° C fast wolkenlos
So, 19.05. 2:00 8.5° C wolkig
Sa, 18.05. 20:00 20.7° C wolkenlos
Sa, 18.05. 14:00 22.3° C fast wolkenlos
Ortszeit Temperatur Wetter
Mo, 20.05. 13:00 23.1° C bewölkt
Mo, 20.05. 12:40 23.5° C wolkig
Mo, 20.05. 12:30 23.7° C bedeckt
Mo, 20.05. 12:20 23.7° C bedeckt
Mo, 20.05. 12:10 23.7° C wolkig
Mo, 20.05. 12:00 23.5° C wolkig
Mo, 20.05. 11:50 23.5° C wolkig
Mo, 20.05. 11:30 23.7° C leicht bewölkt
Mo, 20.05. 11:00 22.9° C leicht bewölkt
Ortszeit Relative Feuchte Sichtweite
Mo, 20.05. 8:00 79% 17 km
Mo, 20.05. 2:00 89% 9 km
So, 19.05. 20:00 63% 27 km
So, 19.05. 14:00 40% 30 km
So, 19.05. 8:00 71% 15 km
So, 19.05. 2:00 95% 12 km
Sa, 18.05. 20:00 44% 50 km
Sa, 18.05. 14:00 46% 30 km
Ortszeit Relative Feuchte Sichtweite
Mo, 20.05. 13:00 46% 45 km
Mo, 20.05. 12:40 46% -
Mo, 20.05. 12:30 46% 40 km
Mo, 20.05. 12:20 46% -
Mo, 20.05. 12:10 48% -
Mo, 20.05. 12:00 45% 40 km
Mo, 20.05. 11:50 45% -
Mo, 20.05. 11:30 50% 26 km
Mo, 20.05. 11:00 53% 35 km
Ortszeit Niederschlagsmenge Niederschlagsart
Mo, 20.05. 8:00 0.1 l/m2 in 12 Std. -
Mo, 20.05. 2:00 0.1 l/m2 in 6 Std. Regen
So, 19.05. 20:00 0.0 l/m2 in 12 Std. -
So, 19.05. 14:00 0.0 l/m2 in 6 Std. -
So, 19.05. 8:00 0.0 l/m2 in 12 Std. -
So, 19.05. 2:00 0.0 l/m2 in 6 Std. -
Sa, 18.05. 20:00 0.0 l/m2 in 12 Std. -
Sa, 18.05. 14:00 0.0 l/m2 in 6 Std. -
Ortszeit Niederschlagsmenge Niederschlagsart
Mo, 20.05. 13:00 0.0 l/m2 in 1 Std. -
Mo, 20.05. 12:40 keine Meldung -
Mo, 20.05. 12:30 0.0 l/m2 in 1 Std. -
Mo, 20.05. 12:20 keine Meldung -
Mo, 20.05. 12:10 keine Meldung -
Mo, 20.05. 12:00 0.0 l/m2 in 1 Std. -
Mo, 20.05. 11:50 keine Meldung -
Mo, 20.05. 11:30 0.0 l/m2 in 1 Std. -
Mo, 20.05. 11:00 0.0 l/m2 in 1 Std. Sprühregen
Ortszeit Stärke Spitze Richtung
km/h Bft. km/h Grad Sektor
Mo, 20.05. 8:00 6 1 15 70° O
Mo, 20.05. 2:00 6 1 28 90° O
So, 19.05. 20:00 4 1 32 360° N
So, 19.05. 14:00 15 3 35 130° SO
So, 19.05. 8:00 7 2 14 100° O
So, 19.05. 2:00 4 1 18 110° O
Sa, 18.05. 20:00 11 2 36 140° SO
Sa, 18.05. 14:00 17 3 37 130° SO
Ortszeit Stärke Spitze Richtung
km/h Bft. km/h Grad Sektor
Mo, 20.05. 13:00 13 3 22 100° O
Mo, 20.05. 12:40 11 2 - 90° O
Mo, 20.05. 12:30 11 2 22 100° O
Mo, 20.05. 12:20 11 2 - 100° O
Mo, 20.05. 12:10 9 2 - 80° O
Mo, 20.05. 12:00 9 2 30 70° O
Mo, 20.05. 11:50 9 2 - 70° O
Mo, 20.05. 11:30 9 2 19 80° O
Mo, 20.05. 11:00 7 2 18 30° NO
Ortszeit Untergrenze Bedeckung Gattung
total tief tief mittel hoch
Mo, 20.05. 8:00 8400 m 8/8 0/8 - - -
Mo, 20.05. 2:00 7500 m 8/8 0/8 - - -
So, 19.05. 20:00 4800 m 6/8 6/8 - - -
So, 19.05. 14:00 1800 m 4/8 4/8 - - -
So, 19.05. 8:00 6000 m 1/8 1/8 - - -
So, 19.05. 2:00 9000 m 8/8 0/8 - - -
Sa, 18.05. 20:00 - 0/8 0/8 - - -
Sa, 18.05. 14:00 1500 m 1/8 1/8 - - -
Ortszeit Bedeckungsgrad in Achtel und Wolkenuntergrenze
Mo, 20.05. 13:00 1(1470m) 4(2700m) 8(3300m)
Mo, 20.05. 12:40 1(1470m) 8(3300m) 8(3900m)
Mo, 20.05. 12:30 6(3000m) 8(3900m) 8(4200m)
Mo, 20.05. 12:20 6(3000m) 8(3900m) 8(4200m)
Mo, 20.05. 12:10 1(1470m) 8(3900m) 8(4500m)
Mo, 20.05. 12:00 2(1350m) 6(3900m) 6(4500m)
Mo, 20.05. 11:50 2(1350m) 6(3900m) 6(4500m)
Mo, 20.05. 11:30 2(1260m) 4(9000m) 5(9000m)
Mo, 20.05. 11:00 3(5400m) 5(9000m) 6(9000m)
Ortszeit Luftdruck NN (hPa) Tendenz (hPa in 3 Std.)
Mo, 20.05. 8:00 1003 0,0
Mo, 20.05. 2:00 1004 - 0,3
So, 19.05. 20:00 1003 - 0,6
So, 19.05. 14:00 1004 - 1,2
So, 19.05. 8:00 1007 0,0
So, 19.05. 2:00 1007 - 0,5
Sa, 18.05. 20:00 1006 - 0,2
Sa, 18.05. 14:00 1007 - 1,1
Ortszeit Luftdruck NN (hPa) Tendenz (hPa in 3 Std.)
Mo, 20.05. 13:00 1002 - 0,6
Mo, 20.05. 12:40 1002 keine Meldung
Mo, 20.05. 12:30 1002 - 0,8
Mo, 20.05. 12:20 1002 keine Meldung
Mo, 20.05. 12:10 1002 keine Meldung
Mo, 20.05. 12:00 1002 - 0,7
Mo, 20.05. 11:50 1002 keine Meldung
Mo, 20.05. 11:30 1002 - 0,4
Mo, 20.05. 11:00 1002 - 0,5
Ortszeit Schneehöhe (cm)
Mo, 20.05. 8:00 -
Mo, 20.05. 2:00 -
So, 19.05. 20:00 -
So, 19.05. 14:00 -
So, 19.05. 8:00 -
So, 19.05. 2:00 -
Sa, 18.05. 20:00 -
Sa, 18.05. 14:00 -
Ortszeit Schneehöhe (cm)
Mo, 20.05. 13:00 -
Mo, 20.05. 12:40 -
Mo, 20.05. 12:30 -
Mo, 20.05. 12:20 -
Mo, 20.05. 12:10 -
Mo, 20.05. 12:00 -
Mo, 20.05. 11:50 -
Mo, 20.05. 11:30 -
Mo, 20.05. 11:00 -
Link zu dieser Seite / Seite empfehlen

Das Wetter in ...